createdAt,value
2023-01-18T00:01:01.032Z,92.88
2023-01-18T00:03:27.570Z,91.99
2023-01-18T00:05:54.708Z,93.24
2023-01-18T00:08:21.046Z,94.82
2023-01-18T00:10:47.352Z,92.77
2023-01-18T00:13:13.639Z,93.00
2023-01-18T00:15:39.922Z,92.86
2023-01-18T00:18:06.248Z,91.76
2023-01-18T00:20:32.945Z,91.26
2023-01-18T00:23:01.578Z,90.94
2023-01-18T00:25:28.763Z,92.83
2023-01-18T00:27:56.637Z,91.87
2023-01-18T00:30:25.707Z,91.21
2023-01-18T00:32:57.837Z,90.74
2023-01-18T00:35:25.282Z,90.89
2023-01-18T00:37:53.006Z,90.51
2023-01-18T00:40:23.275Z,90.10
2023-01-18T00:43:08.413Z,89.64
2023-01-18T00:45:34.971Z,90.27
2023-01-18T00:48:02.507Z,90.44
2023-01-18T00:50:28.951Z,90.23
2023-01-18T00:52:58.541Z,90.46
2023-01-18T00:55:25.735Z,89.47
2023-01-18T00:57:52.068Z,91.05
2023-01-18T01:00:18.932Z,92.19
2023-01-18T01:02:45.333Z,92.19
2023-01-18T01:05:42.636Z,90.97
2023-01-18T01:08:16.653Z,91.73
2023-01-18T01:10:48.977Z,91.11
2023-01-18T01:13:36.084Z,91.46
2023-01-18T01:16:29.533Z,91.26
2023-01-18T01:19:14.558Z,92.51
2023-01-18T01:21:59.828Z,92.90
2023-01-18T01:24:45.053Z,92.59
2023-01-18T01:27:11.987Z,92.16
2023-01-18T01:29:38.695Z,94.43
2023-01-18T01:32:05.627Z,92.89
2023-01-18T01:34:32.266Z,93.04
2023-01-18T01:36:58.547Z,93.16
2023-01-18T01:39:24.867Z,93.65
2023-01-18T01:41:51.264Z,93.11
2023-01-18T01:44:17.517Z,92.94
2023-01-18T01:46:57.181Z,92.88
2023-01-18T01:49:32.615Z,93.25
2023-01-18T01:52:03.703Z,93.41
2023-01-18T01:54:41.894Z,93.40
2023-01-18T01:57:42.659Z,93.75
2023-01-18T02:00:19.475Z,94.81
2023-01-18T02:02:51.597Z,94.58
2023-01-18T02:05:18.710Z,93.62
2023-01-18T02:07:45.602Z,93.07
2023-01-18T02:10:12.243Z,93.05
2023-01-18T02:12:41.122Z,93.88
2023-01-18T02:15:08.073Z,94.15
2023-01-18T02:18:05.536Z,93.53
2023-01-18T02:20:44.127Z,93.81
2023-01-18T02:23:28.978Z,93.27
2023-01-18T02:26:32.686Z,92.37
2023-01-18T02:29:05.803Z,93.00
2023-01-18T02:31:43.881Z,93.20
2023-01-18T02:34:18.711Z,93.79
2023-01-18T02:37:02.765Z,92.24
2023-01-18T02:39:52.277Z,91.94
2023-01-18T02:42:40.034Z,91.56
2023-01-18T02:45:38.998Z,93.70
2023-01-18T02:48:06.807Z,94.18
2023-01-18T02:50:33.338Z,94.98
2023-01-18T02:52:59.963Z,95.73
2023-01-18T02:55:41.310Z,93.91
2023-01-18T02:58:11.331Z,93.38
2023-01-18T03:00:44.198Z,92.42
2023-01-18T03:03:12.022Z,92.01
2023-01-18T03:05:40.449Z,90.20
2023-01-18T03:08:19.831Z,89.37
2023-01-18T03:10:57.460Z,88.99
2023-01-18T03:13:35.906Z,87.94
2023-01-18T03:16:27.667Z,87.39
2023-01-18T03:19:04.925Z,86.76
2023-01-18T03:21:48.217Z,87.01
2023-01-18T03:24:16.711Z,87.14
2023-01-18T03:26:47.282Z,85.24
2023-01-18T03:29:35.812Z,85.47
2023-01-18T03:32:29.369Z,85.04
2023-01-18T03:35:07.971Z,88.91
2023-01-18T03:37:41.369Z,92.10
2023-01-18T03:40:20.911Z,93.01
2023-01-18T03:42:55.651Z,92.99
2023-01-18T03:45:37.817Z,93.07
2023-01-18T03:48:07.563Z,94.07
2023-01-18T03:50:53.262Z,95.71
2023-01-18T03:53:45.151Z,95.82
2023-01-18T03:56:21.118Z,95.39
2023-01-18T03:58:51.083Z,96.04
2023-01-18T04:01:17.715Z,95.67
2023-01-18T04:03:44.090Z,96.66
2023-01-18T04:06:10.462Z,96.91
2023-01-18T04:08:36.797Z,96.90
2023-01-18T04:11:03.240Z,96.19
2023-01-18T04:13:29.526Z,95.00
2023-01-18T04:15:55.868Z,94.41
2023-01-18T04:18:22.192Z,94.97
2023-01-18T04:20:48.998Z,95.03
2023-01-18T04:23:15.726Z,93.70
2023-01-18T04:25:49.832Z,93.75
2023-01-18T04:28:17.231Z,92.59
2023-01-18T04:30:43.579Z,93.54
2023-01-18T04:33:09.886Z,92.97
2023-01-18T04:35:36.199Z,95.15
2023-01-18T04:38:02.519Z,96.10
2023-01-18T04:40:28.822Z,95.56
2023-01-18T04:42:55.182Z,95.01
2023-01-18T04:45:21.563Z,95.27
2023-01-18T04:47:47.918Z,96.20
2023-01-18T04:50:14.304Z,97.45
2023-01-18T04:52:40.625Z,97.84
2023-01-18T04:55:07.761Z,98.01
2023-01-18T04:57:34.329Z,97.81
2023-01-18T05:00:02.083Z,96.92
2023-01-18T05:02:28.518Z,96.63
2023-01-18T05:04:55.615Z,95.79
2023-01-18T05:07:25.101Z,97.33
2023-01-18T05:09:51.594Z,98.93
2023-01-18T05:12:18.095Z,96.30
2023-01-18T05:14:44.399Z,97.10
2023-01-18T05:17:10.704Z,95.80
2023-01-18T05:19:37.074Z,93.66
2023-01-18T05:22:03.380Z,91.67
2023-01-18T05:24:30.234Z,90.45
2023-01-18T05:26:56.925Z,89.05
2023-01-18T05:29:23.604Z,88.15
2023-01-18T05:31:49.925Z,86.68
2023-01-18T05:34:16.291Z,85.50
2023-01-18T05:36:42.579Z,85.70
2023-01-18T05:39:09.483Z,86.31
2023-01-18T05:41:35.775Z,85.05
2023-01-18T05:44:02.066Z,85.23
2023-01-18T05:46:28.419Z,85.24
2023-01-18T05:48:58.745Z,84.48
2023-01-18T05:51:25.716Z,84.98
2023-01-18T05:53:52.059Z,84.62
2023-01-18T05:56:18.379Z,83.35
2023-01-18T05:58:44.667Z,82.98
2023-01-18T06:01:11.100Z,82.09
2023-01-18T06:03:37.451Z,83.03
2023-01-18T06:06:03.807Z,82.53
2023-01-18T06:08:30.137Z,81.93
2023-01-18T06:10:58.689Z,83.68
2023-01-18T06:13:29.419Z,83.49
2023-01-18T06:15:57.023Z,83.61
2023-01-18T06:18:25.302Z,84.29
2023-01-18T06:20:58.065Z,84.67
2023-01-18T06:23:25.987Z,85.37
2023-01-18T06:25:52.662Z,84.04
2023-01-18T06:28:22.580Z,84.03
2023-01-18T06:30:52.694Z,84.69
2023-01-18T06:33:19.137Z,84.70
2023-01-18T06:35:45.469Z,84.69
2023-01-18T06:38:11.807Z,83.92
2023-01-18T06:40:38.123Z,83.93
2023-01-18T06:43:04.687Z,85.41
2023-01-18T06:45:31.120Z,86.20
2023-01-18T06:47:57.538Z,85.63
2023-01-18T06:50:23.912Z,85.34
2023-01-18T06:52:51.265Z,85.81
2023-01-18T06:55:19.584Z,85.50
2023-01-18T06:57:47.644Z,84.67
2023-01-18T07:00:14.863Z,86.24
2023-01-18T07:02:41.203Z,85.46
2023-01-18T07:05:07.752Z,85.55
2023-01-18T07:07:34.077Z,85.37
2023-01-18T07:10:00.418Z,86.15
2023-01-18T07:12:26.912Z,86.51
2023-01-18T07:14:53.254Z,86.24
2023-01-18T07:17:19.647Z,86.06
2023-01-18T07:19:46.014Z,86.56
2023-01-18T07:22:13.170Z,85.53
2023-01-18T07:24:39.590Z,85.53
2023-01-18T07:27:06.029Z,87.55
2023-01-18T07:29:32.337Z,86.96
2023-01-18T07:31:59.473Z,86.34
2023-01-18T07:34:25.825Z,86.42
2023-01-18T07:36:52.319Z,88.54
2023-01-18T07:39:18.644Z,87.96
2023-01-18T07:41:44.918Z,87.56
2023-01-18T07:44:11.748Z,87.29
2023-01-18T07:46:38.475Z,88.00
2023-01-18T07:49:05.719Z,88.36
2023-01-18T07:51:33.129Z,88.10
2023-01-18T07:53:59.446Z,90.08
2023-01-18T07:56:27.058Z,89.81
2023-01-18T07:58:53.875Z,90.33
2023-01-18T08:01:22.507Z,90.69
2023-01-18T08:03:50.372Z,91.05
2023-01-18T08:06:24.910Z,90.44
2023-01-18T08:08:52.029Z,90.36
2023-01-18T08:11:19.269Z,91.50
2023-01-18T08:13:46.375Z,92.10
2023-01-18T08:16:12.905Z,93.53
2023-01-18T08:18:40.465Z,93.25
2023-01-18T08:21:10.998Z,93.17
2023-01-18T08:23:37.552Z,94.19
2023-01-18T08:26:04.800Z,96.11
2023-01-18T08:28:31.184Z,95.79
2023-01-18T08:31:20.087Z,97.24
2023-01-18T08:33:48.659Z,98.87
2023-01-18T08:36:21.059Z,100.00
2023-01-18T08:38:55.210Z,100.00
2023-01-18T08:41:22.575Z,100.00
2023-01-18T08:43:50.805Z,100.00
2023-01-18T08:46:17.370Z,100.00
2023-01-18T08:48:43.767Z,99.52
2023-01-18T08:51:10.253Z,99.98
2023-01-18T08:53:36.561Z,99.27
2023-01-18T08:56:06.626Z,99.81
2023-01-18T08:58:33.727Z,100.00
2023-01-18T09:01:00.139Z,100.00
2023-01-18T09:03:26.564Z,100.00
2023-01-18T09:05:52.869Z,99.84
2023-01-18T09:08:19.213Z,99.66
2023-01-18T09:10:45.628Z,99.00
2023-01-18T09:13:12.082Z,100.00
2023-01-18T09:15:38.747Z,98.63
2023-01-18T09:18:06.254Z,99.03
2023-01-18T09:20:35.849Z,98.37
2023-01-18T09:23:06.977Z,99.07
2023-01-18T09:25:33.489Z,100.00
2023-01-18T09:28:01.299Z,99.65
2023-01-18T09:30:28.960Z,98.88
2023-01-18T09:32:59.489Z,98.15
2023-01-18T09:35:26.077Z,97.90
2023-01-18T09:37:54.389Z,98.48
2023-01-18T09:40:22.920Z,98.83
2023-01-18T09:42:51.717Z,98.15
2023-01-18T09:45:33.383Z,96.55
2023-01-18T09:48:04.372Z,96.60
2023-01-18T09:50:33.951Z,96.14
2023-01-18T09:53:34.370Z,98.41
2023-01-18T09:56:09.502Z,96.62
2023-01-18T09:58:52.171Z,96.53
2023-01-18T10:01:22.765Z,96.75
2023-01-18T10:04:08.755Z,96.59
2023-01-18T10:06:46.783Z,97.36
2023-01-18T10:09:29.577Z,95.45
2023-01-18T10:12:05.102Z,95.58
2023-01-18T10:14:41.871Z,93.46
2023-01-18T10:17:14.663Z,93.25
2023-01-18T10:19:41.241Z,91.43
2023-01-18T10:22:24.221Z,91.57
2023-01-18T10:25:03.222Z,91.20
2023-01-18T10:27:51.071Z,90.82
2023-01-18T10:30:45.123Z,90.46
2023-01-18T10:33:22.973Z,91.25
2023-01-18T10:35:53.661Z,89.93
2023-01-18T10:38:24.592Z,87.43
2023-01-18T10:40:59.293Z,87.77
2023-01-18T10:43:28.581Z,86.76
2023-01-18T10:45:55.968Z,83.94
2023-01-18T10:48:31.850Z,84.48
2023-01-18T10:51:01.307Z,84.05
2023-01-18T10:53:36.405Z,83.80
2023-01-18T10:56:19.327Z,83.71
2023-01-18T10:58:51.822Z,82.45
2023-01-18T11:01:20.229Z,82.92
2023-01-18T11:03:50.841Z,82.18
2023-01-18T11:06:20.304Z,81.22
2023-01-18T11:08:48.709Z,81.66
2023-01-18T11:11:45.997Z,81.39
2023-01-18T11:14:31.866Z,80.47
2023-01-18T11:17:02.264Z,80.38
2023-01-18T11:19:28.753Z,80.40
2023-01-18T11:21:56.025Z,81.93
2023-01-18T11:24:27.718Z,81.77
2023-01-18T11:27:05.316Z,81.95
2023-01-18T11:29:36.308Z,81.50
2023-01-18T11:32:06.424Z,81.92
2023-01-18T11:34:39.034Z,79.62
2023-01-18T11:37:27.838Z,78.61
2023-01-18T11:39:54.175Z,78.23
2023-01-18T11:42:26.265Z,76.17
2023-01-18T11:44:58.085Z,74.23
2023-01-18T11:47:37.210Z,73.90
2023-01-18T11:50:22.843Z,74.61
2023-01-18T11:52:53.986Z,74.12
2023-01-18T11:55:34.764Z,73.77
2023-01-18T11:58:01.777Z,74.78
2023-01-18T12:00:38.031Z,75.38
2023-01-18T12:03:29.753Z,74.56
2023-01-18T12:06:05.442Z,74.78
2023-01-18T12:08:40.691Z,75.25
2023-01-18T12:11:25.626Z,75.51
2023-01-18T12:14:01.314Z,75.84
2023-01-18T12:16:51.171Z,75.84
2023-01-18T12:19:52.802Z,76.01
2023-01-18T12:22:58.700Z,76.16
2023-01-18T12:25:48.953Z,74.73
2023-01-18T12:28:42.085Z,75.32
2023-01-18T12:31:37.250Z,73.96
2023-01-18T12:34:20.334Z,73.20
2023-01-18T12:37:01.913Z,73.13
2023-01-18T12:39:52.079Z,74.05
2023-01-18T12:42:43.338Z,75.33
2023-01-18T12:45:34.913Z,74.80
2023-01-18T12:48:16.950Z,76.13
2023-01-18T12:50:46.965Z,77.78
2023-01-18T12:53:20.165Z,77.63
2023-01-18T12:55:51.013Z,75.81
2023-01-18T12:58:22.660Z,75.64
2023-01-18T13:00:53.779Z,75.96
2023-01-18T13:03:24.943Z,75.62
2023-01-18T13:06:00.190Z,74.78
2023-01-18T13:08:39.848Z,75.10
2023-01-18T13:11:20.882Z,76.20
2023-01-18T13:13:53.354Z,76.67
2023-01-18T13:16:26.400Z,77.34
2023-01-18T13:19:00.109Z,77.23
2023-01-18T13:21:46.716Z,77.32
2023-01-18T13:24:32.131Z,77.30
2023-01-18T13:27:07.665Z,78.21
2023-01-18T13:29:34.381Z,78.07
2023-01-18T13:32:01.014Z,79.15
2023-01-18T13:34:33.517Z,78.47
2023-01-18T13:37:14.541Z,77.52
2023-01-18T13:39:47.441Z,77.91
2023-01-18T13:42:13.751Z,78.32
2023-01-18T13:44:43.534Z,78.15
2023-01-18T13:47:45.804Z,78.03
2023-01-18T13:50:39.227Z,77.20
2023-01-18T13:53:14.701Z,77.12
2023-01-18T13:55:46.932Z,78.10
2023-01-18T13:58:34.090Z,77.61
2023-01-18T14:01:03.717Z,76.65
2023-01-18T14:03:36.276Z,77.49
2023-01-18T14:06:09.844Z,76.83
2023-01-18T14:08:47.448Z,75.66
2023-01-18T14:11:25.240Z,75.25
2023-01-18T14:13:54.587Z,76.60
2023-01-18T14:16:27.603Z,76.38
2023-01-18T14:18:55.707Z,77.08
2023-01-18T14:21:33.479Z,77.18
2023-01-18T14:24:19.790Z,77.78
2023-01-18T14:26:47.533Z,77.31
2023-01-18T14:29:24.903Z,76.99
2023-01-18T14:31:55.833Z,76.56
2023-01-18T14:34:28.162Z,77.40
2023-01-18T14:36:55.131Z,77.45
2023-01-18T14:39:22.282Z,77.50
2023-01-18T14:41:56.554Z,77.23
2023-01-18T14:44:25.850Z,78.00
2023-01-18T14:46:57.235Z,77.38
2023-01-18T14:49:30.920Z,77.85
2023-01-18T14:51:58.675Z,77.58
2023-01-18T14:54:25.793Z,77.11
2023-01-18T14:57:01.272Z,76.94
2023-01-18T14:59:30.875Z,77.46
2023-01-18T15:02:03.024Z,76.88
2023-01-18T15:04:31.576Z,76.54
2023-01-18T15:07:03.522Z,75.67
2023-01-18T15:09:37.041Z,74.53
2023-01-18T15:12:07.504Z,75.65
2023-01-18T15:14:41.545Z,75.09
2023-01-18T15:17:12.239Z,74.65
2023-01-18T15:19:43.771Z,74.86
2023-01-18T15:22:12.912Z,75.20
2023-01-18T15:24:44.510Z,76.03
2023-01-18T15:27:19.907Z,75.92
2023-01-18T15:29:48.321Z,75.88
2023-01-18T15:32:19.717Z,75.63
2023-01-18T15:34:49.168Z,76.83
2023-01-18T15:37:21.683Z,77.44
2023-01-18T15:39:50.324Z,78.36
2023-01-18T15:42:17.970Z,78.63
2023-01-18T15:44:50.547Z,78.96
2023-01-18T15:47:47.221Z,78.98
2023-01-18T15:50:21.491Z,78.44
2023-01-18T15:53:01.788Z,78.91
2023-01-18T15:55:40.038Z,79.59
2023-01-18T15:58:25.159Z,80.49
2023-01-18T16:00:57.629Z,80.89
2023-01-18T16:03:48.523Z,80.80
2023-01-18T16:06:19.791Z,82.48
2023-01-18T16:08:56.367Z,82.53
2023-01-18T16:11:30.341Z,81.73
2023-01-18T16:13:59.045Z,82.86
2023-01-18T16:16:26.313Z,82.84
2023-01-18T16:19:14.767Z,82.99
2023-01-18T16:21:46.814Z,82.48
2023-01-18T16:24:30.329Z,83.12
2023-01-18T16:26:59.758Z,82.89
2023-01-18T16:29:26.357Z,82.54
2023-01-18T16:31:52.704Z,81.98
2023-01-18T16:34:22.808Z,81.93
2023-01-18T16:36:50.226Z,83.14
2023-01-18T16:39:16.990Z,82.83
2023-01-18T16:41:51.046Z,82.66
2023-01-18T16:44:17.906Z,82.67
2023-01-18T16:46:45.584Z,82.25
2023-01-18T16:49:12.837Z,83.20
2023-01-18T16:51:40.439Z,85.56
2023-01-18T16:54:06.819Z,85.27
2023-01-18T16:56:33.399Z,84.93
2023-01-18T16:59:02.538Z,85.15
2023-01-18T17:01:30.780Z,83.91
2023-01-18T17:03:57.391Z,83.90
2023-01-18T17:06:23.696Z,83.72
2023-01-18T17:08:50.623Z,84.49
2023-01-18T17:11:17.511Z,83.56
2023-01-18T17:13:44.854Z,84.12
2023-01-18T17:16:16.669Z,83.94
2023-01-18T17:18:43.247Z,85.21
2023-01-18T17:21:10.483Z,85.94
2023-01-18T17:23:39.057Z,85.91
2023-01-18T17:26:12.850Z,86.22
2023-01-18T17:28:39.153Z,85.13
2023-01-18T17:31:05.663Z,85.89
2023-01-18T17:33:32.569Z,86.09
2023-01-18T17:35:58.909Z,85.46
2023-01-18T17:38:29.066Z,85.48
2023-01-18T17:40:57.297Z,85.41
2023-01-18T17:43:33.405Z,85.20
2023-01-18T17:46:05.366Z,86.02
2023-01-18T17:48:31.687Z,86.11
2023-01-18T17:50:58.502Z,84.79
2023-01-18T17:53:25.725Z,84.89
2023-01-18T17:55:52.323Z,85.10
2023-01-18T17:58:18.627Z,85.28
2023-01-18T18:00:45.221Z,84.26
2023-01-18T18:03:11.697Z,84.16
2023-01-18T18:05:38.174Z,85.16
2023-01-18T18:08:04.709Z,84.90
2023-01-18T18:10:31.514Z,84.47
2023-01-18T18:12:59.430Z,85.70
2023-01-18T18:15:25.920Z,85.60
2023-01-18T18:17:52.295Z,85.01
2023-01-18T18:20:19.354Z,86.15
2023-01-18T18:22:46.676Z,86.57
2023-01-18T18:25:13.738Z,86.06
2023-01-18T18:27:47.625Z,85.99
2023-01-18T18:30:15.649Z,86.30
2023-01-18T18:32:42.009Z,87.27
2023-01-18T18:35:23.761Z,87.54
2023-01-18T18:37:53.414Z,86.86
2023-01-18T18:40:20.031Z,86.83
2023-01-18T18:42:56.452Z,86.17
2023-01-18T18:45:27.704Z,85.94
2023-01-18T18:47:54.025Z,86.21
2023-01-18T18:50:20.354Z,87.13
2023-01-18T18:52:46.731Z,86.77
2023-01-18T18:55:13.220Z,85.47
2023-01-18T18:57:39.668Z,85.74
2023-01-18T19:00:07.398Z,84.96
2023-01-18T19:02:34.540Z,85.74
2023-01-18T19:05:01.009Z,84.77
2023-01-18T19:07:27.424Z,85.13
2023-01-18T19:09:53.718Z,84.54
2023-01-18T19:12:20.153Z,84.57
2023-01-18T19:14:46.461Z,85.67
2023-01-18T19:17:18.525Z,86.32
2023-01-18T19:19:48.880Z,86.26
2023-01-18T19:22:15.323Z,86.61
2023-01-18T19:24:41.661Z,86.07
2023-01-18T19:27:08.005Z,85.39
2023-01-18T19:29:34.349Z,85.80
2023-01-18T19:32:00.786Z,87.12
2023-01-18T19:34:27.271Z,86.26
2023-01-18T19:36:53.592Z,86.99
2023-01-18T19:39:22.669Z,87.01
2023-01-18T19:41:49.722Z,87.04
2023-01-18T19:44:16.820Z,87.03
2023-01-18T19:46:43.201Z,86.67
2023-01-18T19:49:09.523Z,86.75
2023-01-18T19:51:37.350Z,86.72
2023-01-18T19:54:04.111Z,86.41
2023-01-18T19:56:31.289Z,86.36
2023-01-18T19:58:57.996Z,86.91
2023-01-18T20:01:35.711Z,86.77
2023-01-18T20:04:04.685Z,87.54
2023-01-18T20:06:31.360Z,86.84
2023-01-18T20:08:57.715Z,86.82
2023-01-18T20:11:24.212Z,86.62
2023-01-18T20:13:51.127Z,85.86
2023-01-18T20:16:20.227Z,86.00
2023-01-18T20:18:47.727Z,85.96
2023-01-18T20:21:16.983Z,85.93
2023-01-18T20:23:44.733Z,85.52
2023-01-18T20:26:13.162Z,86.00
2023-01-18T20:28:41.030Z,85.89
2023-01-18T20:31:09.106Z,84.73
2023-01-18T20:33:37.960Z,85.17
2023-01-18T20:36:07.006Z,85.47
2023-01-18T20:38:34.005Z,85.59
2023-01-18T20:41:01.080Z,85.75
2023-01-18T20:43:27.409Z,85.86
2023-01-18T20:46:04.938Z,85.55
2023-01-18T20:48:32.676Z,85.60
2023-01-18T20:51:00.072Z,84.91
2023-01-18T20:53:28.142Z,85.91
2023-01-18T20:55:55.156Z,85.07
2023-01-18T20:58:22.709Z,86.18
2023-01-18T21:00:49.799Z,87.21
2023-01-18T21:03:19.269Z,87.24
2023-01-18T21:05:46.035Z,86.69
2023-01-18T21:08:13.052Z,87.24
2023-01-18T21:10:42.309Z,87.16
2023-01-18T21:13:10.328Z,87.96
2023-01-18T21:15:37.643Z,86.58
2023-01-18T21:18:05.594Z,87.15
2023-01-18T21:20:32.299Z,87.27
2023-01-18T21:23:00.035Z,86.35
2023-01-18T21:25:27.849Z,86.32
2023-01-18T21:27:54.287Z,86.82
2023-01-18T21:30:21.341Z,85.89
2023-01-18T21:32:48.241Z,85.03
2023-01-18T21:35:14.709Z,82.60
2023-01-18T21:37:41.542Z,82.72
2023-01-18T21:40:09.543Z,82.23
2023-01-18T21:42:54.557Z,82.80
2023-01-18T21:45:39.512Z,82.14
2023-01-18T21:48:08.695Z,81.19
2023-01-18T21:51:07.828Z,81.62
2023-01-18T21:53:52.616Z,81.85
2023-01-18T21:56:19.222Z,81.31
2023-01-18T21:58:54.963Z,82.14
2023-01-18T22:01:38.932Z,81.85
2023-01-18T22:04:29.763Z,81.42
2023-01-18T22:06:59.116Z,81.71
2023-01-18T22:09:27.366Z,81.24
2023-01-18T22:11:58.329Z,81.81
2023-01-18T22:14:25.516Z,83.28
2023-01-18T22:16:52.101Z,82.71
2023-01-18T22:19:21.394Z,83.25
2023-01-18T22:21:48.565Z,83.68
2023-01-18T22:24:16.732Z,83.92
2023-01-18T22:26:44.575Z,83.04
2023-01-18T22:29:11.284Z,83.01
2023-01-18T22:31:38.285Z,83.54
2023-01-18T22:34:05.607Z,82.89
2023-01-18T22:36:32.925Z,83.81
2023-01-18T22:38:59.315Z,84.31
2023-01-18T22:41:27.812Z,83.74
2023-01-18T22:43:54.713Z,83.89
2023-01-18T22:46:23.178Z,84.74
2023-01-18T22:48:50.273Z,84.98
2023-01-18T22:51:19.499Z,84.69
2023-01-18T22:53:45.881Z,84.85
2023-01-18T22:56:23.427Z,84.59
2023-01-18T22:58:50.544Z,84.75
2023-01-18T23:01:26.127Z,83.17
2023-01-18T23:03:56.082Z,83.38
2023-01-18T23:06:23.029Z,83.29
2023-01-18T23:08:49.523Z,83.84
2023-01-18T23:11:23.718Z,84.17
2023-01-18T23:14:12.076Z,83.46
2023-01-18T23:16:57.300Z,83.82
2023-01-18T23:19:24.805Z,83.78
2023-01-18T23:21:52.754Z,85.89
2023-01-18T23:24:20.215Z,84.74
2023-01-18T23:26:47.121Z,86.01
2023-01-18T23:29:14.004Z,86.67
2023-01-18T23:31:40.920Z,87.93
2023-01-18T23:34:07.247Z,87.71
2023-01-18T23:36:33.611Z,87.00
2023-01-18T23:39:18.632Z,86.39
2023-01-18T23:42:03.459Z,85.36
2023-01-18T23:44:48.486Z,85.90
2023-01-18T23:47:33.164Z,85.66
2023-01-18T23:50:18.039Z,84.73
2023-01-18T23:53:02.706Z,85.33
2023-01-18T23:55:29.021Z,85.55
2023-01-18T23:57:55.340Z,85.36
